createdAt,value
2019-03-20T00:01:50.386Z,17.30
2019-03-20T00:05:14.478Z,16.67
2019-03-20T00:08:38.453Z,18.03
2019-03-20T00:12:02.348Z,17.93
2019-03-20T00:15:26.188Z,19.70
2019-03-20T00:18:50.206Z,18.30
2019-03-20T00:22:13.923Z,17.90
2019-03-20T00:25:37.761Z,18.47
2019-03-20T00:29:01.398Z,17.97
2019-03-20T00:32:25.296Z,16.93
2019-03-20T00:35:49.262Z,17.67
2019-03-20T00:39:13.178Z,20.73
2019-03-20T00:42:37.138Z,21.07
2019-03-20T00:46:00.875Z,22.57
2019-03-20T00:49:24.677Z,20.63
2019-03-20T00:52:48.505Z,18.43
2019-03-20T00:56:12.378Z,21.03
2019-03-20T00:59:36.343Z,21.40
2019-03-20T01:03:00.237Z,28.20
2019-03-20T01:06:24.026Z,29.80
2019-03-20T01:09:48.106Z,21.37
2019-03-20T01:13:14.943Z,26.77
2019-03-20T01:16:38.761Z,33.70
2019-03-20T01:20:02.917Z,31.83
2019-03-20T01:23:26.615Z,26.03
2019-03-20T01:26:50.888Z,24.60
2019-03-20T01:30:32.582Z,26.23
2019-03-20T01:33:56.746Z,30.77
2019-03-20T01:37:21.246Z,31.67
2019-03-20T01:40:45.018Z,27.03
2019-03-20T01:44:08.765Z,30.67
2019-03-20T01:47:33.018Z,26.13
2019-03-20T01:50:59.857Z,27.30
2019-03-20T01:54:23.663Z,28.17
2019-03-20T01:57:47.727Z,29.53
2019-03-20T02:01:11.493Z,29.23
2019-03-20T02:04:35.395Z,34.07
2019-03-20T02:07:59.233Z,32.10
2019-03-20T02:11:23.040Z,26.30
2019-03-20T02:14:46.920Z,24.43
2019-03-20T02:18:10.985Z,24.57
2019-03-20T02:21:34.885Z,24.23
2019-03-20T02:24:58.762Z,23.97
2019-03-20T02:28:22.478Z,26.03
2019-03-20T02:31:46.429Z,23.67
2019-03-20T02:35:10.577Z,25.60
2019-03-20T02:38:34.506Z,24.90
2019-03-20T02:41:58.294Z,27.83
2019-03-20T02:45:22.054Z,28.80
2019-03-20T02:48:45.687Z,28.33
2019-03-20T02:52:09.399Z,25.60
2019-03-20T02:55:33.236Z,24.10
2019-03-20T02:58:57.039Z,23.70
2019-03-20T03:02:21.970Z,25.60
2019-03-20T03:05:45.947Z,29.40
2019-03-20T03:09:09.729Z,26.83
2019-03-20T03:12:34.398Z,28.30
2019-03-20T03:15:58.310Z,31.50
2019-03-20T03:19:22.057Z,26.73
2019-03-20T03:22:45.857Z,53.17
2019-03-20T03:26:09.647Z,125.43
2019-03-20T03:29:33.498Z,40.47
2019-03-20T03:32:57.397Z,33.83
2019-03-20T03:36:22.010Z,28.47
2019-03-20T03:39:46.093Z,28.67
2019-03-20T03:43:10.272Z,37.57
2019-03-20T03:46:34.125Z,30.87
2019-03-20T03:49:58.047Z,29.33
2019-03-20T03:53:21.827Z,29.97
2019-03-20T03:56:45.856Z,31.87
2019-03-20T04:00:13.032Z,29.33
2019-03-20T04:03:36.847Z,30.07
2019-03-20T04:07:00.917Z,31.93
2019-03-20T04:10:24.706Z,35.90
2019-03-20T04:13:49.206Z,36.87
2019-03-20T04:17:22.606Z,32.77
2019-03-20T04:20:46.481Z,32.20
2019-03-20T04:24:10.321Z,32.70
2019-03-20T04:27:34.311Z,34.90
2019-03-20T04:30:58.153Z,35.97
2019-03-20T04:34:22.076Z,30.37
2019-03-20T04:37:46.065Z,31.70
2019-03-20T04:41:09.986Z,32.50
2019-03-20T04:44:33.856Z,31.43
2019-03-20T04:47:57.733Z,29.87
2019-03-20T04:51:21.567Z,30.60
2019-03-20T04:54:45.463Z,38.13
2019-03-20T04:58:09.318Z,31.30
2019-03-20T05:01:33.118Z,41.77
2019-03-20T05:04:57.027Z,36.57
2019-03-20T05:08:20.878Z,36.90
2019-03-20T05:11:44.876Z,34.53
2019-03-20T05:15:10.972Z,39.10
2019-03-20T05:18:34.980Z,35.20
2019-03-20T05:21:58.880Z,35.13
2019-03-20T05:25:22.718Z,32.60
2019-03-20T05:28:46.653Z,32.60
2019-03-20T05:32:10.524Z,27.67
2019-03-20T05:35:34.316Z,26.83
2019-03-20T05:38:59.887Z,26.20
2019-03-20T05:42:23.606Z,24.87
2019-03-20T05:45:47.458Z,23.87
2019-03-20T05:49:11.484Z,27.63
2019-03-20T05:52:35.351Z,25.70
2019-03-20T05:55:59.233Z,26.80
2019-03-20T05:59:23.108Z,29.23
2019-03-20T06:02:46.961Z,30.87
2019-03-20T06:06:10.695Z,30.37
2019-03-20T06:09:34.648Z,30.30
2019-03-20T06:12:58.523Z,27.57
2019-03-20T06:16:22.604Z,29.40
2019-03-20T06:19:46.495Z,30.93
2019-03-20T06:23:11.607Z,32.07
2019-03-20T06:26:35.492Z,29.43
2019-03-20T06:29:59.446Z,28.90
2019-03-20T06:33:23.183Z,32.43
2019-03-20T06:36:47.230Z,27.03
2019-03-20T06:40:13.665Z,22.90
2019-03-20T06:43:37.650Z,25.40
2019-03-20T06:47:01.498Z,20.80
2019-03-20T06:50:25.266Z,24.47
2019-03-20T06:53:49.067Z,20.93
2019-03-20T06:57:12.868Z,19.47
2019-03-20T07:00:54.875Z,19.27
2019-03-20T07:04:21.679Z,19.77
2019-03-20T07:07:45.306Z,17.50
2019-03-20T07:11:09.018Z,16.03
2019-03-20T07:14:32.860Z,16.53
2019-03-20T07:17:56.636Z,17.40
2019-03-20T07:21:20.612Z,19.00
2019-03-20T07:24:44.558Z,18.27
2019-03-20T07:28:08.674Z,16.77
2019-03-20T07:31:32.754Z,16.43
2019-03-20T07:34:56.750Z,16.53
2019-03-20T07:38:21.518Z,17.57
2019-03-20T07:41:45.275Z,16.60
2019-03-20T07:45:10.436Z,16.60
2019-03-20T07:48:34.134Z,13.30
2019-03-20T07:51:58.064Z,12.37
2019-03-20T07:55:21.843Z,13.00
2019-03-20T07:58:45.729Z,11.17
2019-03-20T08:02:09.480Z,12.47
2019-03-20T08:05:33.310Z,10.83
2019-03-20T08:08:57.303Z,9.60
2019-03-20T08:12:21.079Z,9.80
2019-03-20T08:15:44.923Z,9.10
2019-03-20T08:19:08.738Z,11.03
2019-03-20T08:22:32.613Z,8.37
2019-03-20T08:25:56.352Z,9.47
2019-03-20T08:29:20.168Z,9.80
2019-03-20T08:32:44.226Z,11.70
2019-03-20T08:36:08.090Z,12.03
2019-03-20T08:39:32.736Z,11.77
2019-03-20T08:42:56.539Z,13.37
2019-03-20T08:46:20.375Z,11.70
2019-03-20T08:49:44.418Z,12.83
2019-03-20T08:53:08.218Z,11.80
2019-03-20T08:56:32.006Z,7.33
2019-03-20T08:59:55.779Z,11.73
2019-03-20T09:03:19.581Z,15.83
2019-03-20T09:06:43.303Z,25.37
2019-03-20T09:10:12.590Z,12.00
2019-03-20T09:13:36.403Z,11.93
2019-03-20T09:17:00.198Z,9.43
2019-03-20T09:20:24.956Z,9.80
2019-03-20T09:23:49.011Z,8.93
2019-03-20T09:27:12.753Z,10.93
2019-03-20T09:30:36.530Z,15.20
2019-03-20T09:34:00.440Z,6.83
2019-03-20T09:37:24.396Z,7.33
2019-03-20T09:40:51.108Z,4.70
2019-03-20T09:44:14.835Z,4.83
2019-03-20T09:47:38.687Z,6.87
2019-03-20T09:51:02.729Z,9.53
2019-03-20T09:54:26.426Z,7.17
2019-03-20T09:57:50.212Z,6.33
2019-03-20T10:01:14.173Z,7.97
2019-03-20T10:04:37.925Z,6.67
2019-03-20T10:08:01.688Z,7.43
2019-03-20T10:11:25.502Z,6.20
2019-03-20T10:14:49.251Z,6.97
2019-03-20T10:18:13.141Z,8.67
2019-03-20T10:21:36.915Z,8.40
2019-03-20T10:25:00.735Z,8.40
2019-03-20T10:28:24.603Z,7.23
2019-03-20T10:31:48.355Z,7.57
2019-03-20T10:35:12.564Z,9.57
2019-03-20T10:38:36.295Z,6.37
2019-03-20T10:42:00.202Z,12.40
2019-03-20T10:45:23.957Z,5.40
2019-03-20T10:48:47.706Z,5.20
2019-03-20T10:52:11.542Z,5.37
2019-03-20T10:55:35.444Z,4.47
2019-03-20T10:58:59.426Z,5.17
2019-03-20T11:02:23.256Z,7.40
2019-03-20T11:05:47.164Z,7.33
2019-03-20T11:09:18.164Z,7.03
2019-03-20T11:12:36.421Z,4.77
2019-03-20T11:16:00.248Z,4.27
2019-03-20T11:19:24.148Z,4.60
2019-03-20T11:22:47.971Z,4.77
2019-03-20T11:26:11.801Z,9.73
2019-03-20T11:29:35.647Z,7.70
2019-03-20T11:33:00.596Z,7.33
2019-03-20T11:36:24.571Z,10.30
2019-03-20T11:39:48.454Z,5.93
2019-03-20T11:43:12.334Z,7.27
2019-03-20T11:46:36.191Z,5.27
2019-03-20T11:50:00.418Z,4.77
2019-03-20T11:53:24.360Z,8.40
2019-03-20T11:56:48.163Z,5.97
2019-03-20T12:00:14.996Z,9.67
2019-03-20T12:03:38.815Z,6.30
2019-03-20T12:07:02.836Z,3.80
2019-03-20T12:10:29.011Z,3.60
2019-03-20T12:13:52.852Z,4.53
2019-03-20T12:17:16.722Z,7.50
2019-03-20T12:20:40.758Z,5.90
2019-03-20T12:24:04.640Z,6.10
2019-03-20T12:27:29.641Z,13.53
2019-03-20T12:30:53.530Z,6.07
2019-03-20T12:34:17.801Z,5.87
2019-03-20T12:37:41.916Z,8.27
2019-03-20T12:41:05.994Z,7.70
2019-03-20T12:44:29.986Z,4.20
2019-03-20T12:47:53.955Z,6.27
2019-03-20T12:51:17.826Z,4.20
2019-03-20T12:54:41.725Z,4.60
2019-03-20T12:58:05.493Z,4.17
2019-03-20T13:01:29.375Z,6.10
2019-03-20T13:04:53.159Z,5.93
2019-03-20T13:08:16.865Z,5.13
2019-03-20T13:11:41.892Z,4.00
2019-03-20T13:15:12.081Z,5.50
2019-03-20T13:18:36.049Z,5.63
2019-03-20T13:22:00.664Z,4.33
2019-03-20T13:25:25.555Z,3.77
2019-03-20T13:28:49.950Z,4.93
2019-03-20T13:32:13.895Z,4.07
2019-03-20T13:35:37.988Z,3.53
2019-03-20T13:39:01.736Z,4.17
2019-03-20T13:42:25.583Z,3.83
2019-03-20T13:45:49.969Z,5.23
2019-03-20T13:49:13.813Z,3.47
2019-03-20T13:52:37.703Z,3.37
2019-03-20T13:56:02.008Z,3.17
2019-03-20T13:59:26.324Z,3.73
2019-03-20T14:02:50.355Z,3.53
2019-03-20T14:06:14.876Z,3.07
2019-03-20T14:09:38.988Z,3.23
2019-03-20T14:13:02.829Z,3.40
2019-03-20T14:16:26.977Z,5.57
2019-03-20T14:19:51.499Z,3.27
2019-03-20T14:23:15.621Z,3.40
2019-03-20T14:26:40.829Z,4.70
2019-03-20T14:30:08.266Z,5.20
2019-03-20T14:33:32.359Z,4.80
2019-03-20T14:36:56.264Z,2.77
2019-03-20T14:40:23.558Z,2.67
2019-03-20T14:43:47.411Z,3.40
2019-03-20T14:47:11.611Z,2.80
2019-03-20T14:50:36.660Z,3.37
2019-03-20T14:54:01.200Z,3.70
2019-03-20T14:57:25.155Z,4.60
2019-03-20T15:00:49.422Z,4.43
2019-03-20T15:04:13.358Z,4.80
2019-03-20T15:07:37.140Z,5.00
2019-03-20T15:11:01.118Z,7.30
2019-03-20T15:14:25.134Z,4.30
2019-03-20T15:17:48.836Z,4.13
2019-03-20T15:21:12.588Z,6.57
2019-03-20T15:24:36.522Z,7.13
2019-03-20T15:28:00.420Z,11.83
2019-03-20T15:31:24.178Z,21.77
2019-03-20T15:34:47.925Z,9.37
2019-03-20T15:38:11.946Z,14.27
2019-03-20T15:41:35.844Z,5.27
2019-03-20T15:45:00.751Z,3.63
2019-03-20T15:48:24.801Z,4.97
2019-03-20T15:51:48.610Z,4.07
2019-03-20T15:55:31.513Z,7.87
2019-03-20T15:58:55.404Z,18.47
2019-03-20T16:02:19.300Z,17.87
2019-03-20T16:05:44.410Z,28.97
2019-03-20T16:09:09.473Z,28.10
2019-03-20T16:12:33.722Z,24.13
2019-03-20T16:15:57.716Z,32.13
2019-03-20T16:19:22.160Z,49.63
2019-03-20T16:22:46.586Z,106.93
2019-03-20T16:26:10.499Z,81.67
2019-03-20T16:29:34.442Z,78.57
2019-03-20T16:32:58.494Z,68.73
2019-03-20T16:36:22.510Z,57.43
2019-03-20T16:39:46.695Z,53.20
2019-03-20T16:43:11.099Z,39.53
2019-03-20T16:46:35.098Z,70.93
2019-03-20T16:49:59.024Z,25.37
2019-03-20T16:53:22.849Z,21.47
2019-03-20T16:56:46.939Z,11.87
2019-03-20T17:00:19.124Z,12.23
2019-03-20T17:03:43.672Z,11.83
2019-03-20T17:07:07.573Z,15.37
2019-03-20T17:10:36.611Z,13.47
2019-03-20T17:14:00.566Z,9.90
2019-03-20T17:17:24.663Z,13.47
2019-03-20T17:20:49.114Z,13.47
2019-03-20T17:35:59.431Z,28.87
2019-03-20T17:39:23.316Z,13.67
2019-03-20T17:42:47.293Z,10.83
2019-03-20T17:46:12.603Z,8.90
2019-03-20T17:49:36.707Z,8.03
2019-03-20T17:53:00.645Z,10.10
2019-03-20T17:56:24.406Z,19.80
2019-03-20T17:59:48.334Z,22.60
2019-03-20T18:03:13.786Z,9.50
2019-03-20T18:06:38.296Z,10.13
2019-03-20T18:10:02.643Z,16.53
2019-03-20T18:13:26.581Z,10.63
2019-03-20T18:16:50.697Z,9.47
2019-03-20T18:20:19.989Z,9.27
2019-03-20T18:23:44.134Z,11.77
2019-03-20T18:27:08.503Z,12.27
2019-03-20T18:30:38.111Z,10.57
2019-03-20T18:34:03.807Z,10.63
2019-03-20T18:37:28.400Z,9.00
2019-03-20T18:40:52.260Z,10.53
2019-03-20T18:44:16.262Z,11.13
2019-03-20T18:47:40.186Z,12.83
2019-03-20T18:51:04.915Z,9.50
2019-03-20T18:54:28.926Z,10.47
2019-03-20T18:57:53.020Z,9.97
2019-03-20T19:01:17.640Z,9.47
2019-03-20T19:04:41.526Z,10.47
2019-03-20T19:08:06.022Z,9.57
2019-03-20T19:11:30.087Z,8.30
2019-03-20T19:14:55.824Z,12.83
2019-03-20T19:18:19.664Z,18.47
2019-03-20T19:21:43.611Z,23.27
2019-03-20T19:25:11.146Z,17.80
2019-03-20T19:28:35.485Z,29.73
2019-03-20T19:32:00.702Z,15.90
2019-03-20T19:35:25.325Z,23.97
2019-03-20T19:38:49.658Z,16.30
2019-03-20T19:42:19.981Z,17.67
2019-03-20T19:45:39.047Z,10.93
2019-03-20T19:49:02.817Z,11.17
2019-03-20T19:52:26.797Z,13.13
2019-03-20T19:55:50.809Z,14.47
2019-03-20T19:59:14.758Z,12.77
2019-03-20T20:02:38.555Z,12.73
2019-03-20T20:06:02.441Z,21.50
2019-03-20T20:09:26.527Z,15.43
2019-03-20T20:12:50.478Z,31.23
2019-03-20T20:16:14.357Z,20.90
2019-03-20T20:19:38.340Z,21.17
2019-03-20T20:23:04.206Z,17.60
2019-03-20T20:26:27.870Z,26.60
2019-03-20T20:29:51.619Z,20.03
2019-03-20T20:33:15.796Z,17.30
2019-03-20T20:36:39.668Z,15.10
2019-03-20T20:40:06.903Z,14.90
2019-03-20T20:43:30.738Z,18.33
2019-03-20T20:46:54.916Z,28.83
2019-03-20T20:50:18.828Z,15.73
2019-03-20T20:53:42.699Z,12.67
2019-03-20T20:57:06.722Z,85.40
2019-03-20T21:00:30.673Z,19.00
2019-03-20T21:03:54.517Z,26.73
2019-03-20T21:07:18.628Z,27.87
2019-03-20T21:10:42.703Z,15.00
2019-03-20T21:14:06.512Z,17.10
2019-03-20T21:17:33.763Z,24.13
2019-03-20T21:20:58.240Z,16.87
2019-03-20T21:24:25.040Z,19.67
2019-03-20T21:28:03.127Z,19.67
2019-03-20T21:31:32.933Z,24.37
2019-03-20T21:35:19.225Z,15.67
2019-03-20T21:38:43.002Z,22.80
2019-03-20T21:42:32.811Z,38.10
2019-03-20T21:46:22.047Z,26.57
2019-03-20T21:49:46.229Z,24.80
2019-03-20T21:53:12.985Z,25.47
2019-03-20T21:57:03.660Z,21.03
2019-03-20T22:01:05.327Z,17.80
2019-03-20T22:04:29.163Z,42.83
2019-03-20T22:07:52.906Z,28.57
2019-03-20T22:11:22.549Z,26.00
2019-03-20T22:14:49.406Z,17.53
2019-03-20T22:18:35.495Z,21.90
2019-03-20T22:22:25.937Z,17.20
2019-03-20T22:26:01.562Z,19.53
2019-03-20T22:29:28.997Z,18.90
2019-03-20T22:33:13.829Z,16.23
2019-03-20T22:36:38.478Z,21.00
2019-03-20T22:40:14.891Z,20.53
2019-03-20T22:43:47.552Z,23.00
2019-03-20T22:47:26.284Z,19.60
2019-03-20T22:51:02.034Z,20.13
2019-03-20T22:54:57.457Z,26.47
2019-03-20T22:58:29.928Z,24.23
2019-03-20T23:02:08.694Z,18.13
2019-03-20T23:05:32.538Z,19.63
2019-03-20T23:08:56.433Z,21.00
2019-03-20T23:12:20.521Z,18.17
2019-03-20T23:15:46.463Z,22.93
2019-03-20T23:19:10.224Z,26.60
2019-03-20T23:22:33.998Z,24.30
2019-03-20T23:25:57.884Z,22.33
2019-03-20T23:29:21.751Z,20.80
2019-03-20T23:32:45.489Z,19.90
2019-03-20T23:36:09.281Z,19.87
2019-03-20T23:39:33.003Z,18.57
2019-03-20T23:42:59.938Z,20.03
2019-03-20T23:46:23.708Z,17.73
2019-03-20T23:49:47.645Z,17.80
2019-03-20T23:53:11.383Z,17.80
2019-03-20T23:56:38.366Z,17.00
